Nearby METAR Reports

 

KIAG - Niagara Falls, New York, USA
Distance from station: W 12mi, 20km
Updated: 07/25/2021 10:53pm
Clear
Clear
 Wind from W
Wind: W 7 mph , 11 km/h
Temperature: 72°F , 22°C
Dew Point: 66°F , 19°C
Humidity: 83%
Barometer: 1012.5 hPa
Clouds: Clear
Visibility: 10 miles , 16 km
2021/07/26 02:53 KIAG 260253Z 27006KT 10SM CLR 22/19 A2990 RMK AO2 SLP120 T02170189 53015
KBUF - Buffalo/Cheektow, New York, USA
Distance from station: S 13mi, 21km
Updated: 07/25/2021 10:54pm
Clear
Clear
 Wind from WSW
Wind: WSW 7 mph , 11 km/h
Temperature: 73°F , 23°C
Dew Point: 70°F , 21°C
Humidity: 89%
Barometer: 1012.9 hPa
Clouds: Clear
Visibility: 10 miles , 16 km
2021/07/26 02:54 KBUF 260254Z 24006KT 10SM CLR 23/21 A2991 RMK AO2 SLP125 T02330211 53014 $
 
KROC - Rochester, New York, USA
Distance from station: E 51mi, 82km
Updated: 07/25/2021 10:54pm
Few Clouds
Few Clouds
 Wind from W
Wind: W 10 mph , 17 km/h
Temperature: 73°F , 23°C
Dew Point: 63°F , 17°C
Humidity: 69%
Barometer: 1012.2 hPa
Clouds: Few Clouds
Visibility: 10 miles , 16 km
Cloud details: Few Clouds 25000 ft
2021/07/26 02:54 KROC 260254Z 26009KT 10SM FEW250 23/17 A2989 RMK AO2 SLP120 T02280172 53011
CYSN - St. Catharines A, Ontario, Canada
Distance from station: WNW 25mi, 40km
Updated: 07/25/2021 9:00pm
NOT Current
Partly cloudy
Partly cloudy
 Wind from SW
Wind: SW 9 mph , 15 km/h
Temperature: 77°F , 25°C
Dew Point: 70°F , 21°C
Humidity: 79%
Barometer: 1010.8 hPa
Clouds: Partly cloudy
Visibility: 15 miles , 24 km
Cloud details: Partly cloudy 7700 ft
Partly cloudy 18000 ft
2021/07/26 01:00 CYSN 260100Z 23008KT 15SM SCT077 SCT180 25/21 A2985 RMK AC3AC1 LAST STFD OBS/NEXT 261100Z SLP107 DENSITY ALT 1600FT
 
KOLE - Olean, New York, USA
Distance from station: SSE 63mi, 102km
Updated: 07/25/2021 11:15pm
Clear
Clear
 Wind from calm
Wind: Calm
Temperature: 64°F , 18°C
Dew Point: 61°F , 16°C
Humidity: 88%
Barometer: 1015.9 hPa
Clouds: Clear
Visibility: 10 miles , 16 km
2021/07/26 03:15 KOLE 260315Z AUTO 00000KT 10SM CLR 18/16 A3000 RMK AO2
KJHW - Jamestown, New York, USA
Distance from station: SSW 74mi, 119km
Updated: 07/25/2021 10:56pm
Clear
Clear
 Wind from NNW
Wind: NNW 3 mph , 6 km/h
Temperature: 70°F , 21°C
Dew Point: 64°F , 18°C
Humidity: 83%
Barometer: 1015.6 hPa
Clouds: Clear
Visibility: 10 miles , 16 km
2021/07/26 02:56 KJHW 260256Z AUTO 34003KT 10SM CLR 21/18 A2999 RMK AO2 SLP149 T02060178 51013
 
CWWZ - Port Weller (mar, Ontario, Canada
Distance from station: WNW 28mi, 45km
Updated: 07/25/2021 11:00pm

 Wind from W
Wind: W 12 mph , 19 km/h
Temperature: 73°F , 23°C
Dew Point: 64°F , 18°C
Humidity: 74%
2021/07/26 03:00 CWWZ 260300Z AUTO 27010KT 23/18 RMK AO1 SLP127 T02280180 51017
CWPC - Port Colborne(Au, Ontario, Canada
Distance from station: WSW 33mi, 53km
Updated: 07/25/2021 11:00pm

 Wind from NW
Wind: NW 7 mph , 11 km/h
Temperature: 73°F , 23°C
Dew Point: 70°F , 21°C
Humidity: 89%
2021/07/26 03:00 CWPC 260300Z AUTO 32006KT 23/21 RMK AO1 SLP136 T02270206 53015
 
CXVN - Vineland (au8), Ontario, Canada
Distance from station: W 36mi, 58km
Updated: 07/25/2021 11:00pm

 Wind from WSW
Wind: WSW 5 mph , 7 km/h
Temperature: 72°F , 22°C
Dew Point: 61°F , 16°C
Humidity: 69%
2021/07/26 03:00 CXVN 260300Z AUTO 24004KT 22/16 RMK AO1 SLP116 T02160157 51020
CYTZ - Toronto Il Vor, Ontario, Canada
Distance from station: NW 50mi, 81km
Updated: 07/25/2021 11:00pm
Haze, Clear
Haze, Clear
 Wind from W
Wind: W 9 mph , 15 km/h
Temperature: 75°F , 24°C
Dew Point: 59°F , 15°C
Humidity: 57%
Barometer: 1011.5 hPa
Summary: Haze
Clouds: Clear
Visibility: 6 miles , 10 km
2021/07/26 03:00 CYTZ 260300Z AUTO 28008KT 6SM HZ CLR 24/15 A2987 RMK SLP117 DENSITY ALT 1500FT
 
CXTO - Toronto City, Ontario, Canada
Distance from station: NW 52mi, 84km
Updated: 07/25/2021 11:00pm

 
Temperature: 72°F , 22°C
Dew Point: 55°F , 13°C
Humidity: 57%
2021/07/26 03:00 CXTO 260300Z AUTO 22/13 RMK AO1 SLP121 T02220133 51016
KDKK - Dunkirk, New York, USA
Distance from station: SW 52mi, 84km
Updated: 07/25/2021 10:53pm
Clear
Clear
 Wind from SSW
Wind: SSW 7 mph , 11 km/h
Temperature: 72°F , 22°C
Dew Point: 64°F , 18°C
Humidity: 78%
Barometer: 1013.5 hPa
Clouds: Clear
Visibility: 10 miles , 16 km
2021/07/26 02:53 KDKK 260253Z AUTO 21006KT 10SM CLR 22/18 A2993 RMK AO2 SLP131 T02170183 53012 $
 
CYOO - Oshawa, Ontario, Canada
Distance from station: N 56mi, 90km
Updated: 07/25/2021 11:00pm
Haze, Overcast
Haze, Overcast
 Wind from W
Wind: W 2 mph , 4 km/h
Temperature: 70°F , 21°C
Dew Point: 57°F , 14°C
Humidity: 64%
Barometer: 1011.5 hPa
Summary: Haze
Clouds: Overcast
Visibility: 5 miles , 8 km
Cloud details: Overcast 4100 ft
2021/07/26 03:00 CYOO 260300Z AUTO 27002KT 5SM HZ OVC041 21/14 A2987 RMK SLP116 DENSITY ALT 1300FT
CWWB - Burlington Piers, Ontario, Canada
Distance from station: WNW 56mi, 91km
Updated: 07/25/2021 11:00pm

 Wind from SW
Wind: SW 5 mph , 7 km/h
Temperature: 75°F , 24°C
Dew Point: 63°F , 17°C
Humidity: 65%
2021/07/26 03:00 CWWB 260300Z AUTO 23004KT 24/17 RMK AO1 SLP124 T02370166 52017
 
CYYZ - Toronto/Pearson, Ontario, Canada
Distance from station: NW 60mi, 96km
Updated: 07/25/2021 11:00pm
Few Clouds
Few Clouds
 Wind from W
Wind: W 6 mph , 9 km/h
Temperature: 70°F , 21°C
Dew Point: 57°F , 14°C
Humidity: 64%
Barometer: 1012.2 hPa
Clouds: Few Clouds
Visibility: 10 miles , 16 km
Cloud details: Few Clouds 25000 ft
2021/07/26 03:00 CYYZ 260300Z 28005KT 10SM FEW250 21/14 A2989 RMK CI1 CI TR SLP122 DENSITY ALT 1500FT
CYKZ - Toronto Buttonvi, Ontario, Canada
Distance from station: NW 62mi, 99km
Updated: 01/03/2019 4:00am
NOT Current
Partly cloudy
Partly cloudy
 Wind from WSW
Wind: WSW 5 mph , 7 km/h
Temperature: 27°F , -3°C
Wind Chill: 21°F , -6°C
Dew Point: 23°F , -5°C
Humidity: 86%
Barometer: 1010.8 hPa
Clouds: Partly cloudy
Visibility: 15 miles , 24 km
Cloud details: Partly cloudy 4000 ft
2019/01/03 09:00 CYKZ 030900Z 25004KT 15SM SCT040 M03/M05 A2985 RMK SC3 LAST STFD OBS FAREWELL SLP118
 
CXHM - Hamilton Rbg Cs, Ontario, Canada
Distance from station: W 62mi, 100km
Updated: 07/25/2021 11:00pm

 Wind from WSW
Wind: WSW 1 mph , 2 km/h
Temperature: 66°F , 19°C
Dew Point: 59°F , 15°C
Humidity: 78%
2021/07/26 03:00 CXHM 260300Z AUTO 25001KT 19/15 RMK AO1 SLP125 T01930153 51015
KDSV - Dansville, New York, USA
Distance from station: SE 62mi, 100km
Updated: 07/25/2021 10:54pm
Clear
Clear
 Wind from SE
Wind: SE 5 mph , 7 km/h
Temperature: 68°F , 20°C
Dew Point: 63°F , 17°C
Humidity: 83%
Barometer: 1013.5 hPa
Clouds: Clear
Visibility: 8 miles , 13 km
2021/07/26 02:54 KDSV 260254Z AUTO 13004KT 8SM CLR 20/17 A2993 RMK AO2 SLP137 T02000167 51017 $
 
CYHM - Hamilton Airport, Ontario, Canada
Distance from station: W 63mi, 101km
Updated: 07/25/2021 11:00pm
Few Clouds
Few Clouds
 Wind from NW
Wind: NW 5 mph , 7 km/h
Temperature: 72°F , 22°C
Dew Point: 57°F , 14°C
Humidity: 61%
Barometer: 1013.2 hPa
Clouds: Few Clouds
Visibility: 15 miles , 24 km
Cloud details: Few Clouds 23000 ft
2021/07/26 03:00 CYHM 260300Z 31004KT 15SM FEW230 22/14 A2992 RMK CI1 CI TR SLP130 DENSITY ALT 1800FT
CWNC - Cobourg (mars), Ontario, Canada
Distance from station: NNE 63mi, 102km
Updated: 07/25/2021 11:00pm

 Wind from NNW
Wind: NNW 6 mph , 9 km/h
Temperature: 72°F , 22°C
Dew Point: 59°F , 15°C
Humidity: 65%
2021/07/26 03:00 CWNC 260300Z AUTO 34005KT 22/15 RMK AO1 SLP110 T02190150 53015